sensor_id;sensor_type;location;lat;lon;timestamp;temperature;humidity
12885;DHT22;6510;51.362;7.370;2023-03-14T00:00:57;9.70;99.90
12885;DHT22;6510;51.362;7.370;2023-03-14T00:03:23;9.70;99.90
12885;DHT22;6510;51.362;7.370;2023-03-14T00:05:49;9.60;99.90
12885;DHT22;6510;51.362;7.370;2023-03-14T00:08:14;9.70;99.90
12885;DHT22;6510;51.362;7.370;2023-03-14T00:10:40;9.80;99.90
12885;DHT22;6510;51.362;7.370;2023-03-14T00:13:09;9.80;99.90
12885;DHT22;6510;51.362;7.370;2023-03-14T00:15:35;9.70;99.90
12885;DHT22;6510;51.362;7.370;2023-03-14T00:18:00;9.60;99.90
12885;DHT22;6510;51.362;7.370;2023-03-14T00:20:26;9.70;99.90
12885;DHT22;6510;51.362;7.370;2023-03-14T00:22:52;9.60;99.90
12885;DHT22;6510;51.362;7.370;2023-03-14T00:25:21;9.50;99.90
12885;DHT22;6510;51.362;7.370;2023-03-14T00:27:46;9.50;99.90
12885;DHT22;6510;51.362;7.370;2023-03-14T00:30:12;9.70;99.90
12885;DHT22;6510;51.362;7.370;2023-03-14T00:32:38;9.60;99.90
12885;DHT22;6510;51.362;7.370;2023-03-14T00:35:04;9.70;99.90
12885;DHT22;6510;51.362;7.370;2023-03-14T00:37:29;9.70;99.90
12885;DHT22;6510;51.362;7.370;2023-03-14T00:39:55;9.70;99.90
12885;DHT22;6510;51.362;7.370;2023-03-14T00:42:21;9.90;99.90
12885;DHT22;6510;51.362;7.370;2023-03-14T00:44:46;9.80;99.90
12885;DHT22;6510;51.362;7.370;2023-03-14T00:47:12;9.90;99.90
12885;DHT22;6510;51.362;7.370;2023-03-14T00:49:38;10.00;99.90
12885;DHT22;6510;51.362;7.370;2023-03-14T00:52:03;10.00;99.90
12885;DHT22;6510;51.362;7.370;2023-03-14T00:54:29;10.10;99.90
12885;DHT22;6510;51.362;7.370;2023-03-14T00:56:55;10.10;99.90
12885;DHT22;6510;51.362;7.370;2023-03-14T00:59:21;10.20;99.90
12885;DHT22;6510;51.362;7.370;2023-03-14T01:01:47;10.10;99.90
12885;DHT22;6510;51.362;7.370;2023-03-14T01:04:12;10.10;99.90
12885;DHT22;6510;51.362;7.370;2023-03-14T01:06:39;10.10;99.90
12885;DHT22;6510;51.362;7.370;2023-03-14T01:09:04;10.20;99.90
12885;DHT22;6510;51.362;7.370;2023-03-14T01:11:32;10.10;99.90
12885;DHT22;6510;51.362;7.370;2023-03-14T01:13:58;10.10;99.90
12885;DHT22;6510;51.362;7.370;2023-03-14T01:16:26;9.60;99.90
12885;DHT22;6510;51.362;7.370;2023-03-14T01:18:52;9.10;99.90
12885;DHT22;6510;51.362;7.370;2023-03-14T01:21:21;9.00;99.90
12885;DHT22;6510;51.362;7.370;2023-03-14T01:23:47;8.90;99.90
12885;DHT22;6510;51.362;7.370;2023-03-14T01:26:16;8.70;99.90
12885;DHT22;6510;51.362;7.370;2023-03-14T01:28:45;8.50;99.90
12885;DHT22;6510;51.362;7.370;2023-03-14T01:31:11;8.30;99.90
12885;DHT22;6510;51.362;7.370;2023-03-14T01:33:37;8.30;99.90
12885;DHT22;6510;51.362;7.370;2023-03-14T01:36:04;8.20;99.90
12885;DHT22;6510;51.362;7.370;2023-03-14T01:38:31;8.00;99.90
12885;DHT22;6510;51.362;7.370;2023-03-14T01:40:57;7.90;99.90
12885;DHT22;6510;51.362;7.370;2023-03-14T01:43:23;7.90;99.90
12885;DHT22;6510;51.362;7.370;2023-03-14T01:48:35;7.80;99.90
12885;DHT22;6510;51.362;7.370;2023-03-14T01:51:06;7.70;99.90
12885;DHT22;6510;51.362;7.370;2023-03-14T01:53:34;7.70;99.90
12885;DHT22;6510;51.362;7.370;2023-03-14T01:56:01;7.70;99.90
12885;DHT22;6510;51.362;7.370;2023-03-14T01:58:30;7.60;99.90
12885;DHT22;6510;51.362;7.370;2023-03-14T02:00:58;7.60;99.90
12885;DHT22;6510;51.362;7.370;2023-03-14T02:03:25;7.70;99.90
12885;DHT22;6510;51.362;7.370;2023-03-14T02:05:53;7.70;99.90
12885;DHT22;6510;51.362;7.370;2023-03-14T02:08:22;7.70;99.90
12885;DHT22;6510;51.362;7.370;2023-03-14T02:10:50;7.70;99.90
12885;DHT22;6510;51.362;7.370;2023-03-14T02:13:20;7.80;99.90
12885;DHT22;6510;51.362;7.370;2023-03-14T02:15:47;7.80;99.90
12885;DHT22;6510;51.362;7.370;2023-03-14T02:18:14;7.80;99.90
12885;DHT22;6510;51.362;7.370;2023-03-14T02:24:31;7.90;99.90
12885;DHT22;6510;51.362;7.370;2023-03-14T02:26:41;8.00;99.90
12885;DHT22;6510;51.362;7.370;2023-03-14T02:29:09;7.90;99.90
12885;DHT22;6510;51.362;7.370;2023-03-14T02:31:34;7.90;99.90
12885;DHT22;6510;51.362;7.370;2023-03-14T02:34:01;8.00;99.90
12885;DHT22;6510;51.362;7.370;2023-03-14T02:36:27;8.00;99.90
12885;DHT22;6510;51.362;7.370;2023-03-14T02:39:21;8.00;99.90
12885;DHT22;6510;51.362;7.370;2023-03-14T02:41:49;8.00;99.90
12885;DHT22;6510;51.362;7.370;2023-03-14T02:44:17;8.00;99.90
12885;DHT22;6510;51.362;7.370;2023-03-14T02:46:43;8.00;99.90
12885;DHT22;6510;51.362;7.370;2023-03-14T02:49:12;8.00;99.90
12885;DHT22;6510;51.362;7.370;2023-03-14T02:51:39;8.00;99.90
12885;DHT22;6510;51.362;7.370;2023-03-14T02:54:06;8.00;99.90
12885;DHT22;6510;51.362;7.370;2023-03-14T02:56:32;8.00;99.90
12885;DHT22;6510;51.362;7.370;2023-03-14T02:58:58;8.00;99.90
12885;DHT22;6510;51.362;7.370;2023-03-14T03:01:24;8.00;99.90
12885;DHT22;6510;51.362;7.370;2023-03-14T03:03:50;8.00;99.90
12885;DHT22;6510;51.362;7.370;2023-03-14T03:06:16;8.00;99.90
12885;DHT22;6510;51.362;7.370;2023-03-14T03:08:41;8.00;99.90
12885;DHT22;6510;51.362;7.370;2023-03-14T03:11:07;8.00;99.90
12885;DHT22;6510;51.362;7.370;2023-03-14T03:13:33;8.00;99.90
12885;DHT22;6510;51.362;7.370;2023-03-14T03:15:59;8.00;99.90
12885;DHT22;6510;51.362;7.370;2023-03-14T03:18:24;8.10;99.90
12885;DHT22;6510;51.362;7.370;2023-03-14T03:20:50;8.10;99.90
12885;DHT22;6510;51.362;7.370;2023-03-14T03:23:16;8.10;99.90
12885;DHT22;6510;51.362;7.370;2023-03-14T03:25:42;8.10;99.90
12885;DHT22;6510;51.362;7.370;2023-03-14T03:28:07;8.20;99.90
12885;DHT22;6510;51.362;7.370;2023-03-14T03:30:41;8.30;99.90
12885;DHT22;6510;51.362;7.370;2023-03-14T03:33:07;8.30;99.90
12885;DHT22;6510;51.362;7.370;2023-03-14T03:35:32;8.30;99.90
12885;DHT22;6510;51.362;7.370;2023-03-14T03:37:58;8.20;99.90
12885;DHT22;6510;51.362;7.370;2023-03-14T03:40:24;8.30;99.90
12885;DHT22;6510;51.362;7.370;2023-03-14T03:42:50;8.30;99.90
12885;DHT22;6510;51.362;7.370;2023-03-14T03:45:16;8.30;99.90
12885;DHT22;6510;51.362;7.370;2023-03-14T03:47:42;8.20;99.90
12885;DHT22;6510;51.362;7.370;2023-03-14T03:50:07;8.30;99.90
12885;DHT22;6510;51.362;7.370;2023-03-14T03:52:33;8.20;99.90
12885;DHT22;6510;51.362;7.370;2023-03-14T03:54:59;8.10;99.90
12885;DHT22;6510;51.362;7.370;2023-03-14T03:57:25;8.10;99.90
12885;DHT22;6510;51.362;7.370;2023-03-14T03:59:50;8.10;99.90
12885;DHT22;6510;51.362;7.370;2023-03-14T04:02:16;8.10;99.90
12885;DHT22;6510;51.362;7.370;2023-03-14T04:04:41;7.90;99.90
12885;DHT22;6510;51.362;7.370;2023-03-14T04:07:07;7.90;99.90
12885;DHT22;6510;51.362;7.370;2023-03-14T04:09:33;7.80;99.90
12885;DHT22;6510;51.362;7.370;2023-03-14T04:11:58;7.70;99.90
12885;DHT22;6510;51.362;7.370;2023-03-14T04:14:24;7.60;99.90
12885;DHT22;6510;51.362;7.370;2023-03-14T04:16:49;7.50;99.90
12885;DHT22;6510;51.362;7.370;2023-03-14T04:19:15;7.50;99.90
12885;DHT22;6510;51.362;7.370;2023-03-14T04:21:41;7.50;99.90
12885;DHT22;6510;51.362;7.370;2023-03-14T04:24:10;7.40;99.90
12885;DHT22;6510;51.362;7.370;2023-03-14T04:26:36;7.40;99.90
12885;DHT22;6510;51.362;7.370;2023-03-14T04:29:01;7.40;99.90
12885;DHT22;6510;51.362;7.370;2023-03-14T04:31:27;7.40;99.90
12885;DHT22;6510;51.362;7.370;2023-03-14T04:33:52;7.40;99.90
12885;DHT22;6510;51.362;7.370;2023-03-14T04:36:18;7.50;99.90
12885;DHT22;6510;51.362;7.370;2023-03-14T04:38:43;7.50;99.90
12885;DHT22;6510;51.362;7.370;2023-03-14T04:41:09;7.50;99.90
12885;DHT22;6510;51.362;7.370;2023-03-14T04:43:35;7.50;99.90
12885;DHT22;6510;51.362;7.370;2023-03-14T04:46:01;7.50;99.90
12885;DHT22;6510;51.362;7.370;2023-03-14T04:48:27;7.50;99.90
12885;DHT22;6510;51.362;7.370;2023-03-14T04:50:53;7.60;99.90
12885;DHT22;6510;51.362;7.370;2023-03-14T04:53:19;7.60;99.90
12885;DHT22;6510;51.362;7.370;2023-03-14T04:55:50;7.60;99.90
12885;DHT22;6510;51.362;7.370;2023-03-14T04:58:16;7.60;99.90
12885;DHT22;6510;51.362;7.370;2023-03-14T05:00:41;7.60;99.90
12885;DHT22;6510;51.362;7.370;2023-03-14T05:03:07;7.60;99.90
12885;DHT22;6510;51.362;7.370;2023-03-14T05:05:33;7.70;99.90
12885;DHT22;6510;51.362;7.370;2023-03-14T05:07:58;7.70;99.90
12885;DHT22;6510;51.362;7.370;2023-03-14T05:10:24;7.70;99.90
12885;DHT22;6510;51.362;7.370;2023-03-14T05:12:50;7.70;99.90
12885;DHT22;6510;51.362;7.370;2023-03-14T05:15:16;7.80;99.90
12885;DHT22;6510;51.362;7.370;2023-03-14T05:17:42;7.80;99.90
12885;DHT22;6510;51.362;7.370;2023-03-14T05:20:08;7.70;99.90
12885;DHT22;6510;51.362;7.370;2023-03-14T05:22:34;7.70;99.90
12885;DHT22;6510;51.362;7.370;2023-03-14T05:25:00;7.70;99.90
12885;DHT22;6510;51.362;7.370;2023-03-14T05:27:26;7.70;99.90
12885;DHT22;6510;51.362;7.370;2023-03-14T05:29:51;7.70;99.90
12885;DHT22;6510;51.362;7.370;2023-03-14T05:32:17;7.80;99.90
12885;DHT22;6510;51.362;7.370;2023-03-14T05:34:43;7.80;99.90
12885;DHT22;6510;51.362;7.370;2023-03-14T05:37:08;7.80;99.90
12885;DHT22;6510;51.362;7.370;2023-03-14T05:39:34;7.80;99.90
12885;DHT22;6510;51.362;7.370;2023-03-14T05:41:59;7.80;99.90
12885;DHT22;6510;51.362;7.370;2023-03-14T05:44:25;7.80;99.90
12885;DHT22;6510;51.362;7.370;2023-03-14T05:46:51;7.80;99.90
12885;DHT22;6510;51.362;7.370;2023-03-14T05:49:16;7.80;99.90
12885;DHT22;6510;51.362;7.370;2023-03-14T05:51:42;7.80;99.90
12885;DHT22;6510;51.362;7.370;2023-03-14T05:54:07;7.80;99.90
12885;DHT22;6510;51.362;7.370;2023-03-14T05:56:33;7.80;99.90
12885;DHT22;6510;51.362;7.370;2023-03-14T05:58:59;7.80;99.90
12885;DHT22;6510;51.362;7.370;2023-03-14T06:01:27;7.80;99.90
12885;DHT22;6510;51.362;7.370;2023-03-14T06:03:53;7.80;99.90
12885;DHT22;6510;51.362;7.370;2023-03-14T06:06:18;7.80;99.90
12885;DHT22;6510;51.362;7.370;2023-03-14T06:08:44;7.80;99.90
12885;DHT22;6510;51.362;7.370;2023-03-14T06:11:10;7.80;99.90
12885;DHT22;6510;51.362;7.370;2023-03-14T06:13:35;7.80;99.90
12885;DHT22;6510;51.362;7.370;2023-03-14T06:16:01;7.80;99.90
12885;DHT22;6510;51.362;7.370;2023-03-14T06:18:27;7.80;99.90
12885;DHT22;6510;51.362;7.370;2023-03-14T06:20:56;7.80;99.90
12885;DHT22;6510;51.362;7.370;2023-03-14T06:23:22;7.80;99.90
12885;DHT22;6510;51.362;7.370;2023-03-14T06:25:48;7.80;99.90
12885;DHT22;6510;51.362;7.370;2023-03-14T06:28:14;7.80;99.90
12885;DHT22;6510;51.362;7.370;2023-03-14T06:30:40;7.80;99.90
12885;DHT22;6510;51.362;7.370;2023-03-14T06:33:05;7.90;99.90
12885;DHT22;6510;51.362;7.370;2023-03-14T06:35:31;7.90;99.90
12885;DHT22;6510;51.362;7.370;2023-03-14T06:37:57;7.90;99.90
12885;DHT22;6510;51.362;7.370;2023-03-14T06:40:23;7.90;99.90
12885;DHT22;6510;51.362;7.370;2023-03-14T06:42:48;7.90;99.90
12885;DHT22;6510;51.362;7.370;2023-03-14T06:45:14;7.90;99.90
12885;DHT22;6510;51.362;7.370;2023-03-14T06:47:40;7.80;99.90
12885;DHT22;6510;51.362;7.370;2023-03-14T06:50:06;7.90;99.90
12885;DHT22;6510;51.362;7.370;2023-03-14T06:52:32;7.80;99.90
12885;DHT22;6510;51.362;7.370;2023-03-14T06:55:00;7.80;99.90
12885;DHT22;6510;51.362;7.370;2023-03-14T06:57:26;7.90;99.90
12885;DHT22;6510;51.362;7.370;2023-03-14T06:59:51;7.90;99.90
12885;DHT22;6510;51.362;7.370;2023-03-14T07:02:17;7.80;99.90
12885;DHT22;6510;51.362;7.370;2023-03-14T07:04:43;7.90;99.90
12885;DHT22;6510;51.362;7.370;2023-03-14T07:07:08;7.90;99.90
12885;DHT22;6510;51.362;7.370;2023-03-14T07:09:34;7.90;99.90
12885;DHT22;6510;51.362;7.370;2023-03-14T07:12:00;7.90;99.90
12885;DHT22;6510;51.362;7.370;2023-03-14T07:14:26;7.90;99.90
12885;DHT22;6510;51.362;7.370;2023-03-14T07:16:52;7.90;99.90
12885;DHT22;6510;51.362;7.370;2023-03-14T07:19:17;7.90;99.90
12885;DHT22;6510;51.362;7.370;2023-03-14T07:21:43;7.90;99.90
12885;DHT22;6510;51.362;7.370;2023-03-14T07:24:09;7.90;99.90
12885;DHT22;6510;51.362;7.370;2023-03-14T07:26:34;7.90;99.90
12885;DHT22;6510;51.362;7.370;2023-03-14T07:29:00;7.90;99.90
12885;DHT22;6510;51.362;7.370;2023-03-14T07:31:28;7.90;99.90
12885;DHT22;6510;51.362;7.370;2023-03-14T07:33:54;7.90;99.90
12885;DHT22;6510;51.362;7.370;2023-03-14T07:36:20;7.90;99.90
12885;DHT22;6510;51.362;7.370;2023-03-14T07:38:45;8.00;99.90
12885;DHT22;6510;51.362;7.370;2023-03-14T07:41:11;8.00;99.90
12885;DHT22;6510;51.362;7.370;2023-03-14T07:43:36;8.00;99.90
12885;DHT22;6510;51.362;7.370;2023-03-14T07:46:02;8.00;99.90
12885;DHT22;6510;51.362;7.370;2023-03-14T07:48:28;8.10;99.90
12885;DHT22;6510;51.362;7.370;2023-03-14T07:50:54;8.10;99.90
12885;DHT22;6510;51.362;7.370;2023-03-14T07:53:21;8.00;99.90
12885;DHT22;6510;51.362;7.370;2023-03-14T07:55:48;8.00;99.90
12885;DHT22;6510;51.362;7.370;2023-03-14T07:58:15;8.00;99.90
12885;DHT22;6510;51.362;7.370;2023-03-14T08:00:40;8.00;99.90
12885;DHT22;6510;51.362;7.370;2023-03-14T08:03:06;8.00;99.90
12885;DHT22;6510;51.362;7.370;2023-03-14T08:05:37;8.00;99.90
12885;DHT22;6510;51.362;7.370;2023-03-14T08:08:05;8.10;99.90
12885;DHT22;6510;51.362;7.370;2023-03-14T08:10:33;8.10;99.90
12885;DHT22;6510;51.362;7.370;2023-03-14T08:13:00;8.20;99.90
12885;DHT22;6510;51.362;7.370;2023-03-14T08:15:28;8.20;99.90
12885;DHT22;6510;51.362;7.370;2023-03-14T08:17:53;8.20;99.90
12885;DHT22;6510;51.362;7.370;2023-03-14T08:20:25;8.30;99.90
12885;DHT22;6510;51.362;7.370;2023-03-14T08:22:51;8.40;99.90
12885;DHT22;6510;51.362;7.370;2023-03-14T08:25:17;8.40;99.90
12885;DHT22;6510;51.362;7.370;2023-03-14T08:28:13;8.30;99.90
12885;DHT22;6510;51.362;7.370;2023-03-14T08:30:39;8.40;99.90
12885;DHT22;6510;51.362;7.370;2023-03-14T08:33:04;8.40;99.90
12885;DHT22;6510;51.362;7.370;2023-03-14T08:35:30;8.40;99.90
12885;DHT22;6510;51.362;7.370;2023-03-14T08:37:55;8.40;99.90
12885;DHT22;6510;51.362;7.370;2023-03-14T08:40:21;8.40;99.90
12885;DHT22;6510;51.362;7.370;2023-03-14T08:42:47;8.40;99.90
12885;DHT22;6510;51.362;7.370;2023-03-14T08:45:14;8.40;99.90
12885;DHT22;6510;51.362;7.370;2023-03-14T08:47:40;8.40;99.90
12885;DHT22;6510;51.362;7.370;2023-03-14T08:50:06;8.50;99.90
12885;DHT22;6510;51.362;7.370;2023-03-14T08:52:32;8.60;99.90
12885;DHT22;6510;51.362;7.370;2023-03-14T08:54:58;8.60;99.90
12885;DHT22;6510;51.362;7.370;2023-03-14T08:57:25;8.60;99.90
12885;DHT22;6510;51.362;7.370;2023-03-14T08:59:56;8.70;99.90
12885;DHT22;6510;51.362;7.370;2023-03-14T09:02:23;8.70;99.90
12885;DHT22;6510;51.362;7.370;2023-03-14T09:04:53;8.70;99.90
12885;DHT22;6510;51.362;7.370;2023-03-14T09:07:19;8.80;99.90
12885;DHT22;6510;51.362;7.370;2023-03-14T09:09:45;8.90;99.90
12885;DHT22;6510;51.362;7.370;2023-03-14T09:12:11;9.00;99.90
12885;DHT22;6510;51.362;7.370;2023-03-14T09:14:37;9.10;99.90
12885;DHT22;6510;51.362;7.370;2023-03-14T09:17:04;9.00;99.90
12885;DHT22;6510;51.362;7.370;2023-03-14T09:19:29;9.00;99.90
12885;DHT22;6510;51.362;7.370;2023-03-14T09:21:55;9.20;99.90
12885;DHT22;6510;51.362;7.370;2023-03-14T09:24:21;9.20;99.90
12885;DHT22;6510;51.362;7.370;2023-03-14T09:26:46;9.20;99.90
12885;DHT22;6510;51.362;7.370;2023-03-14T09:29:12;9.20;99.90
12885;DHT22;6510;51.362;7.370;2023-03-14T09:31:38;9.20;99.90
12885;DHT22;6510;51.362;7.370;2023-03-14T09:34:03;9.00;99.90
12885;DHT22;6510;51.362;7.370;2023-03-14T09:36:29;9.00;99.90
12885;DHT22;6510;51.362;7.370;2023-03-14T09:38:55;9.10;99.90
12885;DHT22;6510;51.362;7.370;2023-03-14T09:41:33;9.10;99.90
12885;DHT22;6510;51.362;7.370;2023-03-14T09:44:16;9.10;99.90
12885;DHT22;6510;51.362;7.370;2023-03-14T09:46:46;9.00;99.90
12885;DHT22;6510;51.362;7.370;2023-03-14T09:49:27;9.10;99.90
12885;DHT22;6510;51.362;7.370;2023-03-14T09:51:56;8.90;99.90
12885;DHT22;6510;51.362;7.370;2023-03-14T09:54:52;8.90;99.90
12885;DHT22;6510;51.362;7.370;2023-03-14T09:57:19;8.80;99.90
12885;DHT22;6510;51.362;7.370;2023-03-14T09:59:47;8.10;99.90
12885;DHT22;6510;51.362;7.370;2023-03-14T10:02:20;8.00;99.90
12885;DHT22;6510;51.362;7.370;2023-03-14T10:04:48;7.90;99.90
12885;DHT22;6510;51.362;7.370;2023-03-14T10:07:21;7.60;99.90
12885;DHT22;6510;51.362;7.370;2023-03-14T10:09:50;7.50;99.90
12885;DHT22;6510;51.362;7.370;2023-03-14T10:12:16;7.30;99.90
12885;DHT22;6510;51.362;7.370;2023-03-14T10:14:50;7.30;99.90
12885;DHT22;6510;51.362;7.370;2023-03-14T10:17:18;7.30;99.90
12885;DHT22;6510;51.362;7.370;2023-03-14T10:20:00;7.30;99.90
12885;DHT22;6510;51.362;7.370;2023-03-14T10:22:29;7.10;99.90
12885;DHT22;6510;51.362;7.370;2023-03-14T10:24:59;7.10;99.90
12885;DHT22;6510;51.362;7.370;2023-03-14T10:27:32;6.90;99.90
12885;DHT22;6510;51.362;7.370;2023-03-14T10:30:01;6.90;99.90
12885;DHT22;6510;51.362;7.370;2023-03-14T10:32:33;6.90;99.90
12885;DHT22;6510;51.362;7.370;2023-03-14T10:38:00;6.80;99.90
12885;DHT22;6510;51.362;7.370;2023-03-14T10:40:47;6.80;99.90
12885;DHT22;6510;51.362;7.370;2023-03-14T10:43:22;6.90;99.90
12885;DHT22;6510;51.362;7.370;2023-03-14T10:45:57;7.20;99.90
12885;DHT22;6510;51.362;7.370;2023-03-14T10:48:34;7.00;99.90
12885;DHT22;6510;51.362;7.370;2023-03-14T10:53:34;6.90;99.90
12885;DHT22;6510;51.362;7.370;2023-03-14T10:56:04;6.70;99.90
12885;DHT22;6510;51.362;7.370;2023-03-14T10:58:35;6.60;99.90
12885;DHT22;6510;51.362;7.370;2023-03-14T11:03:49;6.50;99.90
12885;DHT22;6510;51.362;7.370;2023-03-14T11:06:26;6.50;99.90
12885;DHT22;6510;51.362;7.370;2023-03-14T11:11:34;6.40;99.90
12885;DHT22;6510;51.362;7.370;2023-03-14T11:16:58;6.40;99.90
12885;DHT22;6510;51.362;7.370;2023-03-14T11:19:37;6.30;99.90
12885;DHT22;6510;51.362;7.370;2023-03-14T11:30:53;6.30;99.90
12885;DHT22;6510;51.362;7.370;2023-03-14T11:33:35;6.30;99.90
12885;DHT22;6510;51.362;7.370;2023-03-14T11:36:07;6.10;99.90
12885;DHT22;6510;51.362;7.370;2023-03-14T11:38:50;6.20;99.90
12885;DHT22;6510;51.362;7.370;2023-03-14T11:41:20;6.50;99.90
12885;DHT22;6510;51.362;7.370;2023-03-14T11:43:49;6.80;99.90
12885;DHT22;6510;51.362;7.370;2023-03-14T11:46:34;6.60;99.90
12885;DHT22;6510;51.362;7.370;2023-03-14T11:49:18;6.50;99.90
12885;DHT22;6510;51.362;7.370;2023-03-14T11:51:49;6.40;99.90
12885;DHT22;6510;51.362;7.370;2023-03-14T11:54:39;6.20;99.90
12885;DHT22;6510;51.362;7.370;2023-03-14T11:57:14;6.10;99.90
12885;DHT22;6510;51.362;7.370;2023-03-14T12:00:00;6.80;99.90
12885;DHT22;6510;51.362;7.370;2023-03-14T12:10:51;6.60;99.90
12885;DHT22;6510;51.362;7.370;2023-03-14T12:13:18;6.30;99.90
12885;DHT22;6510;51.362;7.370;2023-03-14T12:15:55;6.00;99.90
12885;DHT22;6510;51.362;7.370;2023-03-14T12:18:34;6.00;99.90
12885;DHT22;6510;51.362;7.370;2023-03-14T12:21:05;5.80;99.90
12885;DHT22;6510;51.362;7.370;2023-03-14T12:28:39;5.80;99.90
12885;DHT22;6510;51.362;7.370;2023-03-14T12:49:46;5.30;99.90
12885;DHT22;6510;51.362;7.370;2023-03-14T12:52:40;5.50;99.90
12885;DHT22;6510;51.362;7.370;2023-03-14T12:55:29;5.60;99.90
12885;DHT22;6510;51.362;7.370;2023-03-14T13:00:31;6.00;99.90
12885;DHT22;6510;51.362;7.370;2023-03-14T13:03:13;6.50;99.90
12885;DHT22;6510;51.362;7.370;2023-03-14T13:05:59;7.00;99.90
12885;DHT22;6510;51.362;7.370;2023-03-14T13:08:37;7.40;99.90
12885;DHT22;6510;51.362;7.370;2023-03-14T13:11:30;7.40;99.90
12885;DHT22;6510;51.362;7.370;2023-03-14T13:13:59;7.40;99.90
12885;DHT22;6510;51.362;7.370;2023-03-14T13:16:25;7.70;99.90
12885;DHT22;6510;51.362;7.370;2023-03-14T13:19:02;7.30;99.90
12885;DHT22;6510;51.362;7.370;2023-03-14T13:21:35;7.10;99.90
12885;DHT22;6510;51.362;7.370;2023-03-14T13:24:05;6.60;99.90
12885;DHT22;6510;51.362;7.370;2023-03-14T13:26:49;6.40;99.90
12885;DHT22;6510;51.362;7.370;2023-03-14T13:31:46;5.10;99.90
12885;DHT22;6510;51.362;7.370;2023-03-14T13:34:13;4.80;99.90
12885;DHT22;6510;51.362;7.370;2023-03-14T13:36:38;4.70;99.90
12885;DHT22;6510;51.362;7.370;2023-03-14T13:39:11;4.60;99.90
12885;DHT22;6510;51.362;7.370;2023-03-14T13:41:39;4.70;99.90
12885;DHT22;6510;51.362;7.370;2023-03-14T13:44:16;4.70;99.90
12885;DHT22;6510;51.362;7.370;2023-03-14T13:46:42;4.80;99.90
12885;DHT22;6510;51.362;7.370;2023-03-14T13:49:15;4.90;99.90
12885;DHT22;6510;51.362;7.370;2023-03-14T13:51:42;4.90;99.90
12885;DHT22;6510;51.362;7.370;2023-03-14T13:54:17;5.10;99.90
12885;DHT22;6510;51.362;7.370;2023-03-14T13:56:43;5.00;99.90
12885;DHT22;6510;51.362;7.370;2023-03-14T13:59:25;5.10;99.90
12885;DHT22;6510;51.362;7.370;2023-03-14T14:01:52;5.10;99.90
12885;DHT22;6510;51.362;7.370;2023-03-14T14:04:23;5.10;99.90
12885;DHT22;6510;51.362;7.370;2023-03-14T14:06:56;4.80;99.90
12885;DHT22;6510;51.362;7.370;2023-03-14T14:09:28;4.80;99.90
12885;DHT22;6510;51.362;7.370;2023-03-14T14:12:06;4.90;99.90
12885;DHT22;6510;51.362;7.370;2023-03-14T14:14:43;5.10;99.90
12885;DHT22;6510;51.362;7.370;2023-03-14T14:17:13;5.00;99.90
12885;DHT22;6510;51.362;7.370;2023-03-14T14:19:41;5.60;99.90
12885;DHT22;6510;51.362;7.370;2023-03-14T14:22:09;8.50;99.90
12885;DHT22;6510;51.362;7.370;2023-03-14T14:24:36;10.50;99.90
12885;DHT22;6510;51.362;7.370;2023-03-14T14:27:23;9.70;99.90
12885;DHT22;6510;51.362;7.370;2023-03-14T14:30:02;9.70;99.90
12885;DHT22;6510;51.362;7.370;2023-03-14T14:32:36;9.60;99.90
12885;DHT22;6510;51.362;7.370;2023-03-14T14:35:02;9.90;99.90
12885;DHT22;6510;51.362;7.370;2023-03-14T14:37:31;9.90;99.90
12885;DHT22;6510;51.362;7.370;2023-03-14T14:39:59;10.20;99.90
12885;DHT22;6510;51.362;7.370;2023-03-14T14:42:30;8.10;99.90
12885;DHT22;6510;51.362;7.370;2023-03-14T14:44:58;7.40;99.90
12885;DHT22;6510;51.362;7.370;2023-03-14T14:47:27;7.10;99.90
12885;DHT22;6510;51.362;7.370;2023-03-14T14:49:55;6.70;99.90
12885;DHT22;6510;51.362;7.370;2023-03-14T14:52:44;6.20;99.90
12885;DHT22;6510;51.362;7.370;2023-03-14T14:55:18;6.00;99.90
12885;DHT22;6510;51.362;7.370;2023-03-14T14:57:54;6.00;99.90
12885;DHT22;6510;51.362;7.370;2023-03-14T15:00:24;5.90;99.90
12885;DHT22;6510;51.362;7.370;2023-03-14T15:02:59;6.00;99.90
12885;DHT22;6510;51.362;7.370;2023-03-14T15:05:28;7.90;99.90
12885;DHT22;6510;51.362;7.370;2023-03-14T15:07:56;7.70;99.90
12885;DHT22;6510;51.362;7.370;2023-03-14T15:10:24;6.80;99.90
12885;DHT22;6510;51.362;7.370;2023-03-14T15:12:50;6.90;99.90
12885;DHT22;6510;51.362;7.370;2023-03-14T15:15:16;7.00;99.90
12885;DHT22;6510;51.362;7.370;2023-03-14T15:17:42;7.10;99.90
12885;DHT22;6510;51.362;7.370;2023-03-14T15:20:13;6.70;99.90
12885;DHT22;6510;51.362;7.370;2023-03-14T15:22:40;6.30;99.90
12885;DHT22;6510;51.362;7.370;2023-03-14T15:25:06;6.20;99.90
12885;DHT22;6510;51.362;7.370;2023-03-14T15:27:32;6.00;99.90
12885;DHT22;6510;51.362;7.370;2023-03-14T15:29:58;5.90;99.90
12885;DHT22;6510;51.362;7.370;2023-03-14T15:32:27;5.80;99.90
12885;DHT22;6510;51.362;7.370;2023-03-14T15:34:54;5.70;99.90
12885;DHT22;6510;51.362;7.370;2023-03-14T15:37:20;5.70;99.90
12885;DHT22;6510;51.362;7.370;2023-03-14T15:39:46;5.70;99.90
12885;DHT22;6510;51.362;7.370;2023-03-14T15:42:13;5.70;99.90
12885;DHT22;6510;51.362;7.370;2023-03-14T15:44:38;5.60;99.90
12885;DHT22;6510;51.362;7.370;2023-03-14T15:47:05;5.60;99.90
12885;DHT22;6510;51.362;7.370;2023-03-14T15:49:31;5.60;99.90
12885;DHT22;6510;51.362;7.370;2023-03-14T15:51:57;5.60;99.90
12885;DHT22;6510;51.362;7.370;2023-03-14T15:54:23;5.50;99.90
12885;DHT22;6510;51.362;7.370;2023-03-14T15:56:48;5.50;99.90
12885;DHT22;6510;51.362;7.370;2023-03-14T15:59:14;5.50;99.90
12885;DHT22;6510;51.362;7.370;2023-03-14T16:01:40;5.50;99.90
12885;DHT22;6510;51.362;7.370;2023-03-14T16:04:06;5.50;99.90
12885;DHT22;6510;51.362;7.370;2023-03-14T16:06:31;5.50;99.90
12885;DHT22;6510;51.362;7.370;2023-03-14T16:08:57;5.40;99.90
12885;DHT22;6510;51.362;7.370;2023-03-14T16:11:23;5.30;99.90
12885;DHT22;6510;51.362;7.370;2023-03-14T16:13:49;5.30;99.90
12885;DHT22;6510;51.362;7.370;2023-03-14T16:16:15;5.30;99.90
12885;DHT22;6510;51.362;7.370;2023-03-14T16:18:41;5.30;99.90
12885;DHT22;6510;51.362;7.370;2023-03-14T16:21:12;5.30;99.90
12885;DHT22;6510;51.362;7.370;2023-03-14T16:23:38;5.20;99.90
12885;DHT22;6510;51.362;7.370;2023-03-14T16:26:06;5.10;99.90
12885;DHT22;6510;51.362;7.370;2023-03-14T16:28:32;5.10;99.90
12885;DHT22;6510;51.362;7.370;2023-03-14T16:31:06;5.10;99.90
12885;DHT22;6510;51.362;7.370;2023-03-14T16:33:33;5.00;99.90
12885;DHT22;6510;51.362;7.370;2023-03-14T16:36:01;5.00;99.90
12885;DHT22;6510;51.362;7.370;2023-03-14T16:38:31;4.90;99.90
12885;DHT22;6510;51.362;7.370;2023-03-14T16:40:58;4.90;99.90
12885;DHT22;6510;51.362;7.370;2023-03-14T16:43:26;4.90;99.90
12885;DHT22;6510;51.362;7.370;2023-03-14T16:45:51;4.80;99.90
12885;DHT22;6510;51.362;7.370;2023-03-14T16:48:17;4.80;99.90
12885;DHT22;6510;51.362;7.370;2023-03-14T16:50:42;4.70;99.90
12885;DHT22;6510;51.362;7.370;2023-03-14T16:53:08;4.70;99.90
12885;DHT22;6510;51.362;7.370;2023-03-14T16:55:34;4.60;99.90
12885;DHT22;6510;51.362;7.370;2023-03-14T16:57:59;4.50;99.90
12885;DHT22;6510;51.362;7.370;2023-03-14T17:00:25;4.50;99.90
12885;DHT22;6510;51.362;7.370;2023-03-14T17:02:51;4.50;99.90
12885;DHT22;6510;51.362;7.370;2023-03-14T17:05:16;4.50;99.90
12885;DHT22;6510;51.362;7.370;2023-03-14T17:07:42;4.40;99.90
12885;DHT22;6510;51.362;7.370;2023-03-14T17:10:08;4.40;99.90
12885;DHT22;6510;51.362;7.370;2023-03-14T17:12:35;4.40;99.90
12885;DHT22;6510;51.362;7.370;2023-03-14T17:15:01;4.40;99.90